sensor_id;sensor_type;location;lat;lon;timestamp;P1;durP1;ratioP1;P2;durP2;ratioP2
16699;SDS011;8466;52.286;21.124;2022-07-29T00:01:46;9.98;;;9.02;;
16699;SDS011;8466;52.286;21.124;2022-07-29T00:04:17;9.05;;;8.35;;
16699;SDS011;8466;52.286;21.124;2022-07-29T00:06:46;11.40;;;10.25;;
16699;SDS011;8466;52.286;21.124;2022-07-29T00:09:15;11.20;;;10.43;;
16699;SDS011;8466;52.286;21.124;2022-07-29T00:11:44;9.77;;;9.07;;
16699;SDS011;8466;52.286;21.124;2022-07-29T00:14:13;9.75;;;8.95;;
16699;SDS011;8466;52.286;21.124;2022-07-29T00:16:42;11.95;;;11.05;;
16699;SDS011;8466;52.286;21.124;2022-07-29T00:19:11;12.27;;;11.05;;
16699;SDS011;8466;52.286;21.124;2022-07-29T00:21:41;8.93;;;8.23;;
16699;SDS011;8466;52.286;21.124;2022-07-29T00:24:10;13.00;;;8.88;;
16699;SDS011;8466;52.286;21.124;2022-07-29T00:26:39;9.70;;;8.95;;
16699;SDS011;8466;52.286;21.124;2022-07-29T00:29:08;10.82;;;9.93;;
16699;SDS011;8466;52.286;21.124;2022-07-29T00:31:57;10.43;;;9.52;;
16699;SDS011;8466;52.286;21.124;2022-07-29T00:34:26;10.52;;;9.70;;
16699;SDS011;8466;52.286;21.124;2022-07-29T00:37:13;11.38;;;9.90;;
16699;SDS011;8466;52.286;21.124;2022-07-29T00:39:42;11.17;;;10.17;;
16699;SDS011;8466;52.286;21.124;2022-07-29T00:42:12;12.10;;;11.20;;
16699;SDS011;8466;52.286;21.124;2022-07-29T00:44:40;9.82;;;9.13;;
16699;SDS011;8466;52.286;21.124;2022-07-29T00:47:10;11.40;;;9.85;;
16699;SDS011;8466;52.286;21.124;2022-07-29T00:49:39;9.82;;;9.00;;
16699;SDS011;8466;52.286;21.124;2022-07-29T00:52:09;9.75;;;8.07;;
16699;SDS011;8466;52.286;21.124;2022-07-29T00:54:44;9.07;;;8.38;;
16699;SDS011;8466;52.286;21.124;2022-07-29T00:57:13;10.35;;;9.48;;
16699;SDS011;8466;52.286;21.124;2022-07-29T00:59:42;10.43;;;9.45;;
16699;SDS011;8466;52.286;21.124;2022-07-29T01:02:10;9.87;;;9.03;;
16699;SDS011;8466;52.286;21.124;2022-07-29T01:04:41;9.68;;;8.88;;
16699;SDS011;8466;52.286;21.124;2022-07-29T01:07:10;13.80;;;12.80;;
16699;SDS011;8466;52.286;21.124;2022-07-29T01:09:39;11.10;;;10.20;;
16699;SDS011;8466;52.286;21.124;2022-07-29T01:12:15;9.82;;;9.02;;
16699;SDS011;8466;52.286;21.124;2022-07-29T01:14:46;11.15;;;10.00;;
16699;SDS011;8466;52.286;21.124;2022-07-29T01:17:18;11.47;;;10.67;;
16699;SDS011;8466;52.286;21.124;2022-07-29T01:19:53;9.85;;;8.85;;
16699;SDS011;8466;52.286;21.124;2022-07-29T01:22:34;10.07;;;9.27;;
16699;SDS011;8466;52.286;21.124;2022-07-29T01:25:23;11.27;;;10.20;;
16699;SDS011;8466;52.286;21.124;2022-07-29T01:28:12;8.80;;;7.90;;
16699;SDS011;8466;52.286;21.124;2022-07-29T01:30:55;9.20;;;8.48;;
16699;SDS011;8466;52.286;21.124;2022-07-29T01:33:24;9.30;;;8.60;;
16699;SDS011;8466;52.286;21.124;2022-07-29T01:36:13;8.55;;;7.85;;
16699;SDS011;8466;52.286;21.124;2022-07-29T01:38:47;8.63;;;7.83;;
16699;SDS011;8466;52.286;21.124;2022-07-29T01:41:22;10.17;;;8.60;;
16699;SDS011;8466;52.286;21.124;2022-07-29T01:43:53;7.77;;;6.97;;
16699;SDS011;8466;52.286;21.124;2022-07-29T01:46:31;8.80;;;8.00;;
16699;SDS011;8466;52.286;21.124;2022-07-29T01:49:06;8.77;;;8.07;;
16699;SDS011;8466;52.286;21.124;2022-07-29T01:51:40;11.27;;;10.47;;
16699;SDS011;8466;52.286;21.124;2022-07-29T01:54:13;13.20;;;12.20;;
16699;SDS011;8466;52.286;21.124;2022-07-29T01:56:47;9.17;;;8.27;;
16699;SDS011;8466;52.286;21.124;2022-07-29T01:59:18;8.88;;;8.18;;
16699;SDS011;8466;52.286;21.124;2022-07-29T02:01:52;9.73;;;8.90;;
16699;SDS011;8466;52.286;21.124;2022-07-29T02:04:23;12.20;;;11.30;;
16699;SDS011;8466;52.286;21.124;2022-07-29T02:06:57;10.30;;;9.50;;
16699;SDS011;8466;52.286;21.124;2022-07-29T02:09:32;11.13;;;10.23;;
16699;SDS011;8466;52.286;21.124;2022-07-29T02:12:03;9.37;;;8.63;;
16699;SDS011;8466;52.286;21.124;2022-07-29T02:14:35;10.70;;;9.80;;
16699;SDS011;8466;52.286;21.124;2022-07-29T02:17:17;9.48;;;8.88;;
16699;SDS011;8466;52.286;21.124;2022-07-29T02:19:51;9.87;;;9.10;;
16699;SDS011;8466;52.286;21.124;2022-07-29T02:22:23;13.33;;;12.23;;
16699;SDS011;8466;52.286;21.124;2022-07-29T02:24:54;7.30;;;6.63;;
16699;SDS011;8466;52.286;21.124;2022-07-29T02:27:26;7.97;;;7.27;;
16699;SDS011;8466;52.286;21.124;2022-07-29T02:29:56;8.20;;;7.23;;
16699;SDS011;8466;52.286;21.124;2022-07-29T02:32:30;9.07;;;8.27;;
16699;SDS011;8466;52.286;21.124;2022-07-29T02:35:02;8.40;;;7.60;;
16699;SDS011;8466;52.286;21.124;2022-07-29T02:37:32;13.37;;;12.03;;
16699;SDS011;8466;52.286;21.124;2022-07-29T02:40:02;10.43;;;9.33;;
16699;SDS011;8466;52.286;21.124;2022-07-29T02:42:33;10.53;;;9.63;;
16699;SDS011;8466;52.286;21.124;2022-07-29T02:45:06;8.73;;;8.03;;
16699;SDS011;8466;52.286;21.124;2022-07-29T02:47:40;8.50;;;7.83;;
16699;SDS011;8466;52.286;21.124;2022-07-29T02:50:12;8.53;;;7.73;;
16699;SDS011;8466;52.286;21.124;2022-07-29T02:52:43;8.43;;;7.53;;
16699;SDS011;8466;52.286;21.124;2022-07-29T02:55:16;8.77;;;8.03;;
16699;SDS011;8466;52.286;21.124;2022-07-29T02:57:54;9.63;;;7.97;;
16699;SDS011;8466;52.286;21.124;2022-07-29T03:00:27;8.03;;;7.23;;
16699;SDS011;8466;52.286;21.124;2022-07-29T03:03:00;8.30;;;7.50;;
16699;SDS011;8466;52.286;21.124;2022-07-29T03:05:35;10.27;;;8.63;;
16699;SDS011;8466;52.286;21.124;2022-07-29T03:08:05;13.07;;;10.73;;
16699;SDS011;8466;52.286;21.124;2022-07-29T03:10:36;10.60;;;9.53;;
16699;SDS011;8466;52.286;21.124;2022-07-29T03:13:06;9.77;;;8.77;;
16699;SDS011;8466;52.286;21.124;2022-07-29T03:15:37;8.65;;;7.85;;
16699;SDS011;8466;52.286;21.124;2022-07-29T03:18:07;8.53;;;7.73;;
16699;SDS011;8466;52.286;21.124;2022-07-29T03:20:36;8.67;;;7.67;;
16699;SDS011;8466;52.286;21.124;2022-07-29T03:23:07;15.90;;;14.60;;
16699;SDS011;8466;52.286;21.124;2022-07-29T03:25:36;7.60;;;6.90;;
16699;SDS011;8466;52.286;21.124;2022-07-29T03:28:05;9.38;;;8.57;;
16699;SDS011;8466;52.286;21.124;2022-07-29T03:30:35;9.93;;;8.70;;
16699;SDS011;8466;52.286;21.124;2022-07-29T03:33:04;10.53;;;9.53;;
16699;SDS011;8466;52.286;21.124;2022-07-29T03:35:40;15.37;;;14.07;;
16699;SDS011;8466;52.286;21.124;2022-07-29T03:38:09;8.07;;;7.37;;
16699;SDS011;8466;52.286;21.124;2022-07-29T03:40:38;11.07;;;10.10;;
16699;SDS011;8466;52.286;21.124;2022-07-29T03:43:12;8.27;;;7.57;;
16699;SDS011;8466;52.286;21.124;2022-07-29T03:45:44;6.97;;;6.37;;
16699;SDS011;8466;52.286;21.124;2022-07-29T03:48:19;15.80;;;14.43;;
16699;SDS011;8466;52.286;21.124;2022-07-29T03:50:51;7.30;;;6.70;;
16699;SDS011;8466;52.286;21.124;2022-07-29T03:53:20;8.98;;;8.38;;
16699;SDS011;8466;52.286;21.124;2022-07-29T03:55:50;11.02;;;10.30;;
16699;SDS011;8466;52.286;21.124;2022-07-29T03:58:22;8.77;;;8.00;;
16699;SDS011;8466;52.286;21.124;2022-07-29T04:00:53;8.73;;;8.07;;
16699;SDS011;8466;52.286;21.124;2022-07-29T04:03:23;12.50;;;11.70;;
16699;SDS011;8466;52.286;21.124;2022-07-29T04:06:03;13.50;;;12.60;;
16699;SDS011;8466;52.286;21.124;2022-07-29T04:08:34;14.15;;;13.18;;
16699;SDS011;8466;52.286;21.124;2022-07-29T04:11:03;11.50;;;10.75;;
16699;SDS011;8466;52.286;21.124;2022-07-29T04:13:33;7.22;;;6.63;;
16699;SDS011;8466;52.286;21.124;2022-07-29T04:16:02;7.68;;;7.20;;
16699;SDS011;8466;52.286;21.124;2022-07-29T04:18:31;9.10;;;8.30;;
16699;SDS011;8466;52.286;21.124;2022-07-29T04:21:03;9.27;;;8.55;;
16699;SDS011;8466;52.286;21.124;2022-07-29T04:23:32;26.17;;;24.77;;
16699;SDS011;8466;52.286;21.124;2022-07-29T04:26:19;30.95;;;29.30;;
16699;SDS011;8466;52.286;21.124;2022-07-29T04:28:48;43.60;;;40.80;;
16699;SDS011;8466;52.286;21.124;2022-07-29T04:31:16;44.08;;;41.63;;
16699;SDS011;8466;52.286;21.124;2022-07-29T04:33:51;33.05;;;31.08;;
16699;SDS011;8466;52.286;21.124;2022-07-29T04:36:21;12.25;;;11.38;;
16699;SDS011;8466;52.286;21.124;2022-07-29T04:38:55;24.10;;;22.42;;
16699;SDS011;8466;52.286;21.124;2022-07-29T04:41:24;21.25;;;19.88;;
16699;SDS011;8466;52.286;21.124;2022-07-29T04:43:59;20.38;;;19.15;;
16699;SDS011;8466;52.286;21.124;2022-07-29T04:46:32;18.05;;;17.08;;
16699;SDS011;8466;52.286;21.124;2022-07-29T04:49:02;22.55;;;21.33;;
16699;SDS011;8466;52.286;21.124;2022-07-29T04:51:33;147.82;;;139.15;;
16699;SDS011;8466;52.286;21.124;2022-07-29T04:54:02;26.52;;;25.05;;
16699;SDS011;8466;52.286;21.124;2022-07-29T04:56:31;25.50;;;23.98;;
16699;SDS011;8466;52.286;21.124;2022-07-29T04:59:00;25.90;;;24.25;;
16699;SDS011;8466;52.286;21.124;2022-07-29T05:01:29;23.65;;;22.20;;
16699;SDS011;8466;52.286;21.124;2022-07-29T05:04:01;20.77;;;19.63;;
16699;SDS011;8466;52.286;21.124;2022-07-29T05:06:40;36.22;;;33.88;;
16699;SDS011;8466;52.286;21.124;2022-07-29T05:09:09;19.70;;;18.60;;
16699;SDS011;8466;52.286;21.124;2022-07-29T05:11:38;25.10;;;23.67;;
16699;SDS011;8466;52.286;21.124;2022-07-29T05:14:14;37.13;;;34.88;;
16699;SDS011;8466;52.286;21.124;2022-07-29T05:16:43;27.55;;;26.08;;
16699;SDS011;8466;52.286;21.124;2022-07-29T05:19:12;240.65;;;222.45;;
16699;SDS011;8466;52.286;21.124;2022-07-29T05:21:43;133.50;;;123.70;;
16699;SDS011;8466;52.286;21.124;2022-07-29T05:24:13;429.25;;;397.80;;
16699;SDS011;8466;52.286;21.124;2022-07-29T05:26:43;367.67;;;342.13;;
16699;SDS011;8466;52.286;21.124;2022-07-29T05:29:12;333.55;;;310.85;;
16699;SDS011;8466;52.286;21.124;2022-07-29T05:32:01;182.23;;;171.00;;
16699;SDS011;8466;52.286;21.124;2022-07-29T05:34:31;195.60;;;183.02;;
16699;SDS011;8466;52.286;21.124;2022-07-29T05:37:03;229.75;;;214.80;;
16699;SDS011;8466;52.286;21.124;2022-07-29T05:39:32;241.13;;;226.07;;
16699;SDS011;8466;52.286;21.124;2022-07-29T05:42:16;183.63;;;173.35;;
16699;SDS011;8466;52.286;21.124;2022-07-29T05:44:46;223.52;;;209.18;;
16699;SDS011;8466;52.286;21.124;2022-07-29T05:47:15;185.63;;;174.70;;
16699;SDS011;8466;52.286;21.124;2022-07-29T05:49:44;188.30;;;176.77;;
16699;SDS011;8466;52.286;21.124;2022-07-29T05:52:14;166.52;;;156.93;;
16699;SDS011;8466;52.286;21.124;2022-07-29T05:54:43;168.77;;;158.63;;
16699;SDS011;8466;52.286;21.124;2022-07-29T05:57:15;212.93;;;200.13;;
16699;SDS011;8466;52.286;21.124;2022-07-29T05:59:44;189.63;;;178.27;;
16699;SDS011;8466;52.286;21.124;2022-07-29T06:02:13;217.02;;;203.32;;
16699;SDS011;8466;52.286;21.124;2022-07-29T06:04:43;225.68;;;211.68;;
16699;SDS011;8466;52.286;21.124;2022-07-29T06:07:14;246.85;;;232.20;;
16699;SDS011;8466;52.286;21.124;2022-07-29T06:09:43;185.65;;;174.68;;
16699;SDS011;8466;52.286;21.124;2022-07-29T06:12:12;171.18;;;161.10;;
16699;SDS011;8466;52.286;21.124;2022-07-29T06:14:40;169.27;;;159.07;;
16699;SDS011;8466;52.286;21.124;2022-07-29T06:17:09;192.38;;;180.80;;
16699;SDS011;8466;52.286;21.124;2022-07-29T06:19:39;155.38;;;146.57;;
16699;SDS011;8466;52.286;21.124;2022-07-29T06:22:08;168.07;;;158.35;;
16699;SDS011;8466;52.286;21.124;2022-07-29T06:24:38;136.60;;;128.32;;
16699;SDS011;8466;52.286;21.124;2022-07-29T06:27:10;144.57;;;135.85;;
16699;SDS011;8466;52.286;21.124;2022-07-29T06:29:39;121.82;;;114.93;;
16699;SDS011;8466;52.286;21.124;2022-07-29T06:32:08;145.02;;;136.85;;
16699;SDS011;8466;52.286;21.124;2022-07-29T06:34:36;80.65;;;76.22;;
16699;SDS011;8466;52.286;21.124;2022-07-29T06:37:08;83.78;;;79.00;;
16699;SDS011;8466;52.286;21.124;2022-07-29T06:39:42;78.80;;;74.35;;
16699;SDS011;8466;52.286;21.124;2022-07-29T06:42:11;92.32;;;87.10;;
16699;SDS011;8466;52.286;21.124;2022-07-29T06:44:40;121.82;;;114.68;;
16699;SDS011;8466;52.286;21.124;2022-07-29T06:47:09;159.00;;;149.27;;
16699;SDS011;8466;52.286;21.124;2022-07-29T06:49:38;155.73;;;146.55;;
16699;SDS011;8466;52.286;21.124;2022-07-29T06:52:07;101.15;;;95.70;;
16699;SDS011;8466;52.286;21.124;2022-07-29T06:54:36;123.88;;;116.93;;
16699;SDS011;8466;52.286;21.124;2022-07-29T06:57:07;111.32;;;104.97;;
16699;SDS011;8466;52.286;21.124;2022-07-29T06:59:36;103.63;;;97.70;;
16699;SDS011;8466;52.286;21.124;2022-07-29T07:02:05;99.43;;;93.80;;
16699;SDS011;8466;52.286;21.124;2022-07-29T07:04:33;113.03;;;106.75;;
16699;SDS011;8466;52.286;21.124;2022-07-29T07:07:02;73.40;;;69.28;;
16699;SDS011;8466;52.286;21.124;2022-07-29T07:09:31;97.57;;;91.88;;
16699;SDS011;8466;52.286;21.124;2022-07-29T07:12:07;112.03;;;105.63;;
16699;SDS011;8466;52.286;21.124;2022-07-29T07:14:37;122.60;;;115.95;;
16699;SDS011;8466;52.286;21.124;2022-07-29T07:17:07;95.95;;;90.72;;
16699;SDS011;8466;52.286;21.124;2022-07-29T07:19:36;88.80;;;83.95;;
16699;SDS011;8466;52.286;21.124;2022-07-29T07:22:05;61.88;;;58.65;;
16699;SDS011;8466;52.286;21.124;2022-07-29T07:24:33;53.80;;;50.88;;
16699;SDS011;8466;52.286;21.124;2022-07-29T07:27:02;808.60;;;734.47;;
16699;SDS011;8466;52.286;21.124;2022-07-29T07:29:34;135.65;;;127.80;;
16699;SDS011;8466;52.286;21.124;2022-07-29T07:32:03;54.17;;;51.08;;
16699;SDS011;8466;52.286;21.124;2022-07-29T07:34:33;41.88;;;39.67;;
16699;SDS011;8466;52.286;21.124;2022-07-29T07:37:01;39.95;;;37.67;;
16699;SDS011;8466;52.286;21.124;2022-07-29T07:39:30;30.42;;;28.77;;
16699;SDS011;8466;52.286;21.124;2022-07-29T07:41:59;38.78;;;36.72;;
16699;SDS011;8466;52.286;21.124;2022-07-29T07:44:28;46.45;;;43.90;;
16699;SDS011;8466;52.286;21.124;2022-07-29T07:47:13;55.28;;;52.40;;
16699;SDS011;8466;52.286;21.124;2022-07-29T07:49:43;50.17;;;47.40;;
16699;SDS011;8466;52.286;21.124;2022-07-29T07:52:14;60.47;;;57.40;;
16699;SDS011;8466;52.286;21.124;2022-07-29T07:54:45;54.17;;;51.25;;
16699;SDS011;8466;52.286;21.124;2022-07-29T07:57:14;47.25;;;44.60;;
16699;SDS011;8466;52.286;21.124;2022-07-29T07:59:44;21.13;;;19.85;;
16699;SDS011;8466;52.286;21.124;2022-07-29T08:02:14;25.13;;;23.38;;
16699;SDS011;8466;52.286;21.124;2022-07-29T08:04:44;37.10;;;34.72;;
16699;SDS011;8466;52.286;21.124;2022-07-29T08:07:12;39.40;;;37.17;;
16699;SDS011;8466;52.286;21.124;2022-07-29T08:09:41;31.45;;;29.60;;
16699;SDS011;8466;52.286;21.124;2022-07-29T08:12:10;23.90;;;22.40;;
16699;SDS011;8466;52.286;21.124;2022-07-29T08:14:39;22.73;;;21.48;;
16699;SDS011;8466;52.286;21.124;2022-07-29T08:17:08;28.08;;;26.55;;
16699;SDS011;8466;52.286;21.124;2022-07-29T08:19:39;24.13;;;22.67;;
16699;SDS011;8466;52.286;21.124;2022-07-29T08:22:07;27.45;;;25.80;;
16699;SDS011;8466;52.286;21.124;2022-07-29T08:24:40;27.95;;;26.50;;
16699;SDS011;8466;52.286;21.124;2022-07-29T08:27:20;27.38;;;25.98;;
16699;SDS011;8466;52.286;21.124;2022-07-29T08:30:10;20.48;;;19.02;;
16699;SDS011;8466;52.286;21.124;2022-07-29T08:32:42;21.60;;;20.35;;
16699;SDS011;8466;52.286;21.124;2022-07-29T08:35:22;21.13;;;20.00;;
16699;SDS011;8466;52.286;21.124;2022-07-29T08:37:51;22.73;;;21.50;;
16699;SDS011;8466;52.286;21.124;2022-07-29T08:40:20;17.40;;;16.25;;
16699;SDS011;8466;52.286;21.124;2022-07-29T08:42:57;18.67;;;17.60;;
16699;SDS011;8466;52.286;21.124;2022-07-29T08:45:29;16.55;;;15.68;;
16699;SDS011;8466;52.286;21.124;2022-07-29T08:48:12;18.50;;;17.20;;
16699;SDS011;8466;52.286;21.124;2022-07-29T08:50:43;13.13;;;11.95;;
16699;SDS011;8466;52.286;21.124;2022-07-29T08:53:15;13.55;;;11.73;;
16699;SDS011;8466;52.286;21.124;2022-07-29T08:55:45;15.65;;;14.50;;
16699;SDS011;8466;52.286;21.124;2022-07-29T08:58:15;16.30;;;15.05;;
16699;SDS011;8466;52.286;21.124;2022-07-29T09:00:49;12.05;;;11.05;;
16699;SDS011;8466;52.286;21.124;2022-07-29T09:03:22;13.00;;;11.85;;
16699;SDS011;8466;52.286;21.124;2022-07-29T09:05:54;17.25;;;16.00;;
16699;SDS011;8466;52.286;21.124;2022-07-29T09:08:24;146.43;;;137.75;;
16699;SDS011;8466;52.286;21.124;2022-07-29T09:10:57;18.60;;;17.25;;
16699;SDS011;8466;52.286;21.124;2022-07-29T09:13:30;20.77;;;19.10;;
16699;SDS011;8466;52.286;21.124;2022-07-29T09:15:59;27.60;;;25.95;;
16699;SDS011;8466;52.286;21.124;2022-07-29T09:18:34;30.25;;;28.38;;
16699;SDS011;8466;52.286;21.124;2022-07-29T09:21:07;27.77;;;25.85;;
16699;SDS011;8466;52.286;21.124;2022-07-29T09:24:05;19.80;;;18.50;;
16699;SDS011;8466;52.286;21.124;2022-07-29T09:26:36;21.38;;;19.98;;
16699;SDS011;8466;52.286;21.124;2022-07-29T09:29:09;17.70;;;16.42;;
16699;SDS011;8466;52.286;21.124;2022-07-29T09:31:40;19.90;;;18.50;;
16699;SDS011;8466;52.286;21.124;2022-07-29T09:34:22;14.88;;;13.77;;
16699;SDS011;8466;52.286;21.124;2022-07-29T09:36:57;14.95;;;13.82;;
16699;SDS011;8466;52.286;21.124;2022-07-29T09:39:27;13.32;;;12.30;;
16699;SDS011;8466;52.286;21.124;2022-07-29T09:41:58;12.77;;;11.75;;
16699;SDS011;8466;52.286;21.124;2022-07-29T09:44:40;11.52;;;10.60;;
16699;SDS011;8466;52.286;21.124;2022-07-29T09:47:12;14.73;;;13.57;;
16699;SDS011;8466;52.286;21.124;2022-07-29T09:49:52;13.00;;;12.10;;
16699;SDS011;8466;52.286;21.124;2022-07-29T09:52:26;13.15;;;12.13;;
16699;SDS011;8466;52.286;21.124;2022-07-29T09:55:04;132.65;;;124.80;;
16699;SDS011;8466;52.286;21.124;2022-07-29T09:57:39;15.65;;;14.52;;
16699;SDS011;8466;52.286;21.124;2022-07-29T10:00:08;15.32;;;14.07;;
16699;SDS011;8466;52.286;21.124;2022-07-29T10:02:39;11.10;;;10.15;;
16699;SDS011;8466;52.286;21.124;2022-07-29T10:05:17;10.32;;;9.18;;
16699;SDS011;8466;52.286;21.124;2022-07-29T10:07:50;9.40;;;8.70;;
16699;SDS011;8466;52.286;21.124;2022-07-29T10:10:23;11.93;;;10.90;;
16699;SDS011;8466;52.286;21.124;2022-07-29T10:12:54;12.13;;;11.05;;
16699;SDS011;8466;52.286;21.124;2022-07-29T10:15:33;11.23;;;10.13;;
16699;SDS011;8466;52.286;21.124;2022-07-29T10:18:05;11.65;;;10.85;;
16699;SDS011;8466;52.286;21.124;2022-07-29T10:20:35;12.13;;;11.18;;
16699;SDS011;8466;52.286;21.124;2022-07-29T10:23:06;13.10;;;8.15;;
16699;SDS011;8466;52.286;21.124;2022-07-29T10:25:36;11.25;;;10.43;;
16699;SDS011;8466;52.286;21.124;2022-07-29T10:28:05;9.50;;;8.55;;
16699;SDS011;8466;52.286;21.124;2022-07-29T10:30:41;9.55;;;8.75;;
16699;SDS011;8466;52.286;21.124;2022-07-29T10:33:15;11.73;;;10.82;;
16699;SDS011;8466;52.286;21.124;2022-07-29T10:36:07;12.32;;;9.48;;
16699;SDS011;8466;52.286;21.124;2022-07-29T10:38:55;10.43;;;9.52;;
16699;SDS011;8466;52.286;21.124;2022-07-29T10:44:30;10.68;;;9.52;;
16699;SDS011;8466;52.286;21.124;2022-07-29T10:47:00;9.98;;;9.27;;
16699;SDS011;8466;52.286;21.124;2022-07-29T10:49:29;10.70;;;9.88;;
16699;SDS011;8466;52.286;21.124;2022-07-29T10:51:59;14.35;;;13.35;;
16699;SDS011;8466;52.286;21.124;2022-07-29T10:54:43;18.15;;;16.80;;
16699;SDS011;8466;52.286;21.124;2022-07-29T10:57:18;17.77;;;16.50;;
16699;SDS011;8466;52.286;21.124;2022-07-29T11:00:28;18.02;;;16.60;;
16699;SDS011;8466;52.286;21.124;2022-07-29T11:02:59;17.88;;;16.55;;
16699;SDS011;8466;52.286;21.124;2022-07-29T11:08:25;19.10;;;17.15;;
16699;SDS011;8466;52.286;21.124;2022-07-29T11:14:04;25.77;;;23.58;;
16699;SDS011;8466;52.286;21.124;2022-07-29T11:19:34;12.40;;;11.23;;
16699;SDS011;8466;52.286;21.124;2022-07-29T11:22:12;10.88;;;9.93;;
16699;SDS011;8466;52.286;21.124;2022-07-29T11:25:12;12.93;;;11.88;;
16699;SDS011;8466;52.286;21.124;2022-07-29T11:27:42;22.80;;;21.05;;
16699;SDS011;8466;52.286;21.124;2022-07-29T11:30:14;19.70;;;18.02;;
16699;SDS011;8466;52.286;21.124;2022-07-29T11:32:43;14.45;;;13.25;;
16699;SDS011;8466;52.286;21.124;2022-07-29T11:35:14;13.02;;;11.98;;
16699;SDS011;8466;52.286;21.124;2022-07-29T11:38:24;12.25;;;11.27;;
16699;SDS011;8466;52.286;21.124;2022-07-29T11:43:57;8.35;;;7.95;;
16699;SDS011;8466;52.286;21.124;2022-07-29T11:46:47;17.98;;;16.50;;
16699;SDS011;8466;52.286;21.124;2022-07-29T11:49:19;172.10;;;160.57;;
16699;SDS011;8466;52.286;21.124;2022-07-29T11:51:59;24.15;;;22.45;;
16699;SDS011;8466;52.286;21.124;2022-07-29T11:54:30;21.55;;;19.98;;
16699;SDS011;8466;52.286;21.124;2022-07-29T11:57:20;18.48;;;16.88;;
16699;SDS011;8466;52.286;21.124;2022-07-29T12:00:02;21.42;;;19.52;;
16699;SDS011;8466;52.286;21.124;2022-07-29T12:02:55;15.48;;;14.40;;
16699;SDS011;8466;52.286;21.124;2022-07-29T12:05:32;20.27;;;18.52;;
16699;SDS011;8466;52.286;21.124;2022-07-29T12:08:17;32.55;;;29.98;;
16699;SDS011;8466;52.286;21.124;2022-07-29T12:10:49;42.05;;;38.53;;
16699;SDS011;8466;52.286;21.124;2022-07-29T12:13:19;39.97;;;36.58;;
16699;SDS011;8466;52.286;21.124;2022-07-29T12:16:03;32.10;;;29.73;;
16699;SDS011;8466;52.286;21.124;2022-07-29T12:18:34;36.53;;;33.38;;
16699;SDS011;8466;52.286;21.124;2022-07-29T12:21:03;57.45;;;53.22;;
16699;SDS011;8466;52.286;21.124;2022-07-29T12:23:32;47.92;;;43.83;;
16699;SDS011;8466;52.286;21.124;2022-07-29T12:26:03;45.63;;;41.70;;
16699;SDS011;8466;52.286;21.124;2022-07-29T12:28:47;49.83;;;45.90;;
16699;SDS011;8466;52.286;21.124;2022-07-29T12:31:17;42.28;;;38.92;;
16699;SDS011;8466;52.286;21.124;2022-07-29T12:34:07;88.10;;;82.97;;
16699;SDS011;8466;52.286;21.124;2022-07-29T12:36:36;66.55;;;61.40;;
16699;SDS011;8466;52.286;21.124;2022-07-29T12:39:04;58.38;;;53.97;;
16699;SDS011;8466;52.286;21.124;2022-07-29T12:41:33;48.08;;;44.42;;
16699;SDS011;8466;52.286;21.124;2022-07-29T12:44:03;50.60;;;46.42;;
16699;SDS011;8466;52.286;21.124;2022-07-29T12:46:32;51.83;;;47.60;;
16699;SDS011;8466;52.286;21.124;2022-07-29T12:49:01;54.72;;;50.25;;
16699;SDS011;8466;52.286;21.124;2022-07-29T12:51:33;125.75;;;118.00;;
16699;SDS011;8466;52.286;21.124;2022-07-29T12:54:03;191.18;;;177.55;;
16699;SDS011;8466;52.286;21.124;2022-07-29T12:56:35;46.50;;;43.58;;
16699;SDS011;8466;52.286;21.124;2022-07-29T12:59:13;37.75;;;34.78;;
16699;SDS011;8466;52.286;21.124;2022-07-29T13:01:43;42.92;;;39.22;;
16699;SDS011;8466;52.286;21.124;2022-07-29T13:04:23;45.97;;;42.65;;
16699;SDS011;8466;52.286;21.124;2022-07-29T13:06:59;49.42;;;45.88;;
16699;SDS011;8466;52.286;21.124;2022-07-29T13:09:36;57.15;;;52.50;;
16699;SDS011;8466;52.286;21.124;2022-07-29T13:12:07;55.67;;;51.75;;
16699;SDS011;8466;52.286;21.124;2022-07-29T13:14:37;50.63;;;47.15;;
16699;SDS011;8466;52.286;21.124;2022-07-29T13:17:08;47.53;;;43.92;;
16699;SDS011;8466;52.286;21.124;2022-07-29T13:19:38;51.88;;;47.97;;
16699;SDS011;8466;52.286;21.124;2022-07-29T13:22:10;55.47;;;51.47;;
16699;SDS011;8466;52.286;21.124;2022-07-29T13:24:47;48.72;;;45.47;;
16699;SDS011;8466;52.286;21.124;2022-07-29T13:27:17;53.25;;;49.03;;
16699;SDS011;8466;52.286;21.124;2022-07-29T13:29:48;52.97;;;49.08;;
16699;SDS011;8466;52.286;21.124;2022-07-29T13:32:19;51.83;;;48.25;;
16699;SDS011;8466;52.286;21.124;2022-07-29T13:34:54;47.63;;;44.40;;
16699;SDS011;8466;52.286;21.124;2022-07-29T13:37:25;36.83;;;34.58;;
16699;SDS011;8466;52.286;21.124;2022-07-29T13:39:56;55.80;;;52.10;;
16699;SDS011;8466;52.286;21.124;2022-07-29T13:42:26;51.92;;;48.55;;
16699;SDS011;8466;52.286;21.124;2022-07-29T13:44:56;46.90;;;44.15;;
16699;SDS011;8466;52.286;21.124;2022-07-29T13:47:25;15.75;;;14.52;;
16699;SDS011;8466;52.286;21.124;2022-07-29T13:49:59;13.57;;;12.50;;
16699;SDS011;8466;52.286;21.124;2022-07-29T13:52:32;16.60;;;15.43;;
16699;SDS011;8466;52.286;21.124;2022-07-29T13:55:01;17.30;;;15.82;;
16699;SDS011;8466;52.286;21.124;2022-07-29T13:57:31;247.57;;;230.63;;
16699;SDS011;8466;52.286;21.124;2022-07-29T14:00:00;43.53;;;41.15;;
16699;SDS011;8466;52.286;21.124;2022-07-29T14:02:29;19.67;;;18.45;;
16699;SDS011;8466;52.286;21.124;2022-07-29T14:04:59;14.90;;;14.00;;
16699;SDS011;8466;52.286;21.124;2022-07-29T14:07:34;10.75;;;9.93;;
16699;SDS011;8466;52.286;21.124;2022-07-29T14:10:05;11.50;;;10.75;;
16699;SDS011;8466;52.286;21.124;2022-07-29T14:12:34;9.35;;;8.52;;
16699;SDS011;8466;52.286;21.124;2022-07-29T14:15:04;13.30;;;12.32;;
16699;SDS011;8466;52.286;21.124;2022-07-29T14:17:33;10.00;;;9.10;;
16699;SDS011;8466;52.286;21.124;2022-07-29T14:20:02;10.20;;;9.00;;
16699;SDS011;8466;52.286;21.124;2022-07-29T14:22:32;9.68;;;8.68;;
16699;SDS011;8466;52.286;21.124;2022-07-29T14:25:08;8.82;;;8.00;;
16699;SDS011;8466;52.286;21.124;2022-07-29T14:27:40;9.43;;;8.10;;
16699;SDS011;8466;52.286;21.124;2022-07-29T14:30:11;12.68;;;9.82;;
16699;SDS011;8466;52.286;21.124;2022-07-29T14:32:41;12.55;;;11.60;;
16699;SDS011;8466;52.286;21.124;2022-07-29T14:35:10;157.73;;;147.82;;
16699;SDS011;8466;52.286;21.124;2022-07-29T14:37:40;17.50;;;16.55;;
16699;SDS011;8466;52.286;21.124;2022-07-29T14:40:09;13.93;;;13.02;;
16699;SDS011;8466;52.286;21.124;2022-07-29T14:42:39;9.73;;;8.90;;
16699;SDS011;8466;52.286;21.124;2022-07-29T14:45:08;9.45;;;8.63;;
16699;SDS011;8466;52.286;21.124;2022-07-29T14:47:37;8.48;;;7.65;;
16699;SDS011;8466;52.286;21.124;2022-07-29T14:50:07;9.82;;;9.00;;
16699;SDS011;8466;52.286;21.124;2022-07-29T14:52:36;10.07;;;9.13;;
16699;SDS011;8466;52.286;21.124;2022-07-29T14:55:07;15.48;;;14.02;;
16699;SDS011;8466;52.286;21.124;2022-07-29T14:57:45;12.55;;;11.60;;
16699;SDS011;8466;52.286;21.124;2022-07-29T15:00:14;11.70;;;10.85;;
16699;SDS011;8466;52.286;21.124;2022-07-29T15:02:44;13.50;;;12.50;;
16699;SDS011;8466;52.286;21.124;2022-07-29T15:05:27;15.73;;;14.63;;
16699;SDS011;8466;52.286;21.124;2022-07-29T15:07:56;14.98;;;14.18;;
16699;SDS011;8466;52.286;21.124;2022-07-29T15:10:27;19.17;;;18.10;;